sensor_id;sensor_type;location;lat;lon;timestamp;P1;durP1;ratioP1;P2;durP2;ratioP2
59040;SDS011;44825;53.200;6.448;2024-01-15T00:00:45;16.33;;;1.83;;
59040;SDS011;44825;53.200;6.448;2024-01-15T00:03:11;8.95;;;1.63;;
59040;SDS011;44825;53.200;6.448;2024-01-15T00:05:37;19.63;;;1.90;;
59040;SDS011;44825;53.200;6.448;2024-01-15T00:08:03;9.65;;;1.17;;
59040;SDS011;44825;53.200;6.448;2024-01-15T00:10:29;8.55;;;1.25;;
59040;SDS011;44825;53.200;6.448;2024-01-15T00:12:55;3.78;;;0.75;;
59040;SDS011;44825;53.200;6.448;2024-01-15T00:15:21;5.40;;;1.20;;
59040;SDS011;44825;53.200;6.448;2024-01-15T00:17:47;5.55;;;0.70;;
59040;SDS011;44825;53.200;6.448;2024-01-15T00:20:13;6.05;;;0.90;;
59040;SDS011;44825;53.200;6.448;2024-01-15T00:22:40;5.53;;;1.40;;
59040;SDS011;44825;53.200;6.448;2024-01-15T00:25:06;8.52;;;1.33;;
59040;SDS011;44825;53.200;6.448;2024-01-15T00:27:32;10.68;;;1.50;;
59040;SDS011;44825;53.200;6.448;2024-01-15T00:29:58;7.70;;;1.42;;
59040;SDS011;44825;53.200;6.448;2024-01-15T00:32:24;4.97;;;0.60;;
59040;SDS011;44825;53.200;6.448;2024-01-15T00:34:50;5.82;;;0.85;;
59040;SDS011;44825;53.200;6.448;2024-01-15T00:37:16;5.95;;;1.60;;
59040;SDS011;44825;53.200;6.448;2024-01-15T00:39:42;3.53;;;0.40;;
59040;SDS011;44825;53.200;6.448;2024-01-15T00:42:08;3.97;;;0.60;;
59040;SDS011;44825;53.200;6.448;2024-01-15T00:44:34;6.13;;;0.52;;
59040;SDS011;44825;53.200;6.448;2024-01-15T00:47:00;3.47;;;0.80;;
59040;SDS011;44825;53.200;6.448;2024-01-15T00:49:27;6.88;;;1.25;;
59040;SDS011;44825;53.200;6.448;2024-01-15T00:51:53;8.73;;;1.25;;
59040;SDS011;44825;53.200;6.448;2024-01-15T00:54:19;7.90;;;1.10;;
59040;SDS011;44825;53.200;6.448;2024-01-15T00:56:45;6.68;;;1.10;;
59040;SDS011;44825;53.200;6.448;2024-01-15T00:59:11;9.90;;;2.78;;
59040;SDS011;44825;53.200;6.448;2024-01-15T01:01:40;12.75;;;1.42;;
59040;SDS011;44825;53.200;6.448;2024-01-15T01:04:08;7.65;;;1.58;;
59040;SDS011;44825;53.200;6.448;2024-01-15T01:06:34;12.98;;;2.88;;
59040;SDS011;44825;53.200;6.448;2024-01-15T01:09:00;17.00;;;2.05;;
59040;SDS011;44825;53.200;6.448;2024-01-15T01:11:26;15.93;;;2.80;;
59040;SDS011;44825;53.200;6.448;2024-01-15T01:13:52;10.45;;;1.77;;
59040;SDS011;44825;53.200;6.448;2024-01-15T01:16:18;15.02;;;2.13;;
59040;SDS011;44825;53.200;6.448;2024-01-15T01:18:44;11.32;;;1.65;;
59040;SDS011;44825;53.200;6.448;2024-01-15T01:21:10;11.57;;;1.25;;
59040;SDS011;44825;53.200;6.448;2024-01-15T01:23:36;10.05;;;1.40;;
59040;SDS011;44825;53.200;6.448;2024-01-15T01:26:02;9.20;;;1.50;;
59040;SDS011;44825;53.200;6.448;2024-01-15T01:28:28;9.77;;;1.60;;
59040;SDS011;44825;53.200;6.448;2024-01-15T01:30:55;13.30;;;1.60;;
59040;SDS011;44825;53.200;6.448;2024-01-15T01:33:21;10.05;;;1.50;;
59040;SDS011;44825;53.200;6.448;2024-01-15T01:35:47;7.78;;;1.20;;
59040;SDS011;44825;53.200;6.448;2024-01-15T01:38:13;10.20;;;1.50;;
59040;SDS011;44825;53.200;6.448;2024-01-15T01:40:39;15.77;;;2.90;;
59040;SDS011;44825;53.200;6.448;2024-01-15T01:43:05;11.43;;;1.70;;
59040;SDS011;44825;53.200;6.448;2024-01-15T01:45:31;7.60;;;1.30;;
59040;SDS011;44825;53.200;6.448;2024-01-15T01:47:57;8.93;;;1.60;;
59040;SDS011;44825;53.200;6.448;2024-01-15T01:50:23;9.55;;;1.90;;
59040;SDS011;44825;53.200;6.448;2024-01-15T01:52:49;10.60;;;2.03;;
59040;SDS011;44825;53.200;6.448;2024-01-15T01:55:16;7.38;;;1.23;;
59040;SDS011;44825;53.200;6.448;2024-01-15T01:57:42;14.20;;;1.70;;
59040;SDS011;44825;53.200;6.448;2024-01-15T02:00:09;7.72;;;1.40;;
59040;SDS011;44825;53.200;6.448;2024-01-15T02:02:35;15.05;;;1.90;;
59040;SDS011;44825;53.200;6.448;2024-01-15T02:05:02;10.10;;;2.08;;
59040;SDS011;44825;53.200;6.448;2024-01-15T02:07:29;12.60;;;2.78;;
59040;SDS011;44825;53.200;6.448;2024-01-15T02:09:55;10.25;;;1.52;;
59040;SDS011;44825;53.200;6.448;2024-01-15T02:12:21;7.47;;;1.25;;
59040;SDS011;44825;53.200;6.448;2024-01-15T02:14:47;10.45;;;1.35;;
59040;SDS011;44825;53.200;6.448;2024-01-15T02:17:13;8.20;;;1.73;;
59040;SDS011;44825;53.200;6.448;2024-01-15T02:19:39;12.85;;;1.83;;
59040;SDS011;44825;53.200;6.448;2024-01-15T02:22:06;7.28;;;1.50;;
59040;SDS011;44825;53.200;6.448;2024-01-15T02:24:32;8.90;;;1.30;;
59040;SDS011;44825;53.200;6.448;2024-01-15T02:26:58;8.25;;;1.40;;
59040;SDS011;44825;53.200;6.448;2024-01-15T02:29:24;13.38;;;1.85;;
59040;SDS011;44825;53.200;6.448;2024-01-15T02:31:50;7.65;;;1.40;;
59040;SDS011;44825;53.200;6.448;2024-01-15T02:34:16;11.80;;;1.83;;
59040;SDS011;44825;53.200;6.448;2024-01-15T02:36:42;12.48;;;1.52;;
59040;SDS011;44825;53.200;6.448;2024-01-15T02:39:08;10.73;;;1.60;;
59040;SDS011;44825;53.200;6.448;2024-01-15T02:41:34;10.00;;;1.55;;
59040;SDS011;44825;53.200;6.448;2024-01-15T02:44:00;8.68;;;1.55;;
59040;SDS011;44825;53.200;6.448;2024-01-15T02:46:26;13.40;;;1.88;;
59040;SDS011;44825;53.200;6.448;2024-01-15T02:48:52;9.23;;;1.52;;
59040;SDS011;44825;53.200;6.448;2024-01-15T02:51:18;8.75;;;1.63;;
59040;SDS011;44825;53.200;6.448;2024-01-15T02:53:44;14.07;;;2.55;;
59040;SDS011;44825;53.200;6.448;2024-01-15T02:56:10;13.27;;;1.80;;
59040;SDS011;44825;53.200;6.448;2024-01-15T02:58:36;7.80;;;1.83;;
59040;SDS011;44825;53.200;6.448;2024-01-15T03:01:03;25.02;;;2.67;;
59040;SDS011;44825;53.200;6.448;2024-01-15T03:03:29;13.68;;;2.42;;
59040;SDS011;44825;53.200;6.448;2024-01-15T03:05:55;16.30;;;1.95;;
59040;SDS011;44825;53.200;6.448;2024-01-15T03:08:21;13.80;;;2.65;;
59040;SDS011;44825;53.200;6.448;2024-01-15T03:10:47;9.40;;;2.17;;
59040;SDS011;44825;53.200;6.448;2024-01-15T03:13:13;10.73;;;2.10;;
59040;SDS011;44825;53.200;6.448;2024-01-15T03:15:39;12.18;;;2.72;;
59040;SDS011;44825;53.200;6.448;2024-01-15T03:18:05;13.32;;;2.65;;
59040;SDS011;44825;53.200;6.448;2024-01-15T03:20:32;16.48;;;2.35;;
59040;SDS011;44825;53.200;6.448;2024-01-15T03:22:58;22.08;;;3.17;;
59040;SDS011;44825;53.200;6.448;2024-01-15T03:25:24;18.63;;;2.10;;
59040;SDS011;44825;53.200;6.448;2024-01-15T03:27:50;15.02;;;2.67;;
59040;SDS011;44825;53.200;6.448;2024-01-15T03:30:16;15.32;;;2.55;;
59040;SDS011;44825;53.200;6.448;2024-01-15T03:32:42;14.48;;;2.65;;
59040;SDS011;44825;53.200;6.448;2024-01-15T03:35:08;17.25;;;2.05;;
59040;SDS011;44825;53.200;6.448;2024-01-15T03:37:34;15.38;;;2.20;;
59040;SDS011;44825;53.200;6.448;2024-01-15T03:40:00;11.98;;;1.92;;
59040;SDS011;44825;53.200;6.448;2024-01-15T03:42:27;14.57;;;2.28;;
59040;SDS011;44825;53.200;6.448;2024-01-15T03:44:53;18.83;;;2.40;;
59040;SDS011;44825;53.200;6.448;2024-01-15T03:47:19;12.85;;;2.03;;
59040;SDS011;44825;53.200;6.448;2024-01-15T03:49:45;9.55;;;2.25;;
59040;SDS011;44825;53.200;6.448;2024-01-15T03:52:11;7.22;;;1.80;;
59040;SDS011;44825;53.200;6.448;2024-01-15T03:54:37;12.30;;;1.63;;
59040;SDS011;44825;53.200;6.448;2024-01-15T03:57:04;14.63;;;1.58;;
59040;SDS011;44825;53.200;6.448;2024-01-15T03:59:30;7.10;;;1.38;;
59040;SDS011;44825;53.200;6.448;2024-01-15T04:01:56;14.02;;;1.52;;
59040;SDS011;44825;53.200;6.448;2024-01-15T04:04:22;8.75;;;1.73;;
59040;SDS011;44825;53.200;6.448;2024-01-15T04:06:48;6.25;;;0.95;;
59040;SDS011;44825;53.200;6.448;2024-01-15T04:09:14;9.88;;;1.80;;
59040;SDS011;44825;53.200;6.448;2024-01-15T04:11:40;5.60;;;1.30;;
59040;SDS011;44825;53.200;6.448;2024-01-15T04:14:06;5.35;;;1.40;;
59040;SDS011;44825;53.200;6.448;2024-01-15T04:16:32;8.85;;;1.30;;
59040;SDS011;44825;53.200;6.448;2024-01-15T04:18:58;8.93;;;1.20;;
59040;SDS011;44825;53.200;6.448;2024-01-15T04:21:24;7.93;;;1.13;;
59040;SDS011;44825;53.200;6.448;2024-01-15T04:23:50;9.73;;;1.10;;
59040;SDS011;44825;53.200;6.448;2024-01-15T04:26:16;8.88;;;1.23;;
59040;SDS011;44825;53.200;6.448;2024-01-15T04:28:42;11.15;;;1.30;;
59040;SDS011;44825;53.200;6.448;2024-01-15T04:31:08;6.47;;;1.08;;
59040;SDS011;44825;53.200;6.448;2024-01-15T04:33:34;11.65;;;1.45;;
59040;SDS011;44825;53.200;6.448;2024-01-15T04:36:04;8.88;;;1.77;;
59040;SDS011;44825;53.200;6.448;2024-01-15T04:38:33;5.00;;;1.20;;
59040;SDS011;44825;53.200;6.448;2024-01-15T04:41:01;9.48;;;1.13;;
59040;SDS011;44825;53.200;6.448;2024-01-15T04:43:27;6.45;;;1.27;;
59040;SDS011;44825;53.200;6.448;2024-01-15T04:45:53;5.55;;;0.80;;
59040;SDS011;44825;53.200;6.448;2024-01-15T04:48:19;9.02;;;1.02;;
59040;SDS011;44825;53.200;6.448;2024-01-15T04:50:45;9.07;;;1.13;;
59040;SDS011;44825;53.200;6.448;2024-01-15T04:53:11;7.38;;;1.02;;
59040;SDS011;44825;53.200;6.448;2024-01-15T04:55:37;5.43;;;0.55;;
59040;SDS011;44825;53.200;6.448;2024-01-15T04:58:04;6.22;;;0.90;;
59040;SDS011;44825;53.200;6.448;2024-01-15T05:00:30;6.18;;;0.85;;
59040;SDS011;44825;53.200;6.448;2024-01-15T05:02:56;2.63;;;0.90;;
59040;SDS011;44825;53.200;6.448;2024-01-15T05:05:22;5.90;;;0.73;;
59040;SDS011;44825;53.200;6.448;2024-01-15T05:07:48;4.05;;;0.82;;
59040;SDS011;44825;53.200;6.448;2024-01-15T05:10:14;3.33;;;0.50;;
59040;SDS011;44825;53.200;6.448;2024-01-15T05:12:40;3.55;;;0.63;;
59040;SDS011;44825;53.200;6.448;2024-01-15T05:15:06;4.93;;;0.68;;
59040;SDS011;44825;53.200;6.448;2024-01-15T05:17:32;4.85;;;0.70;;
59040;SDS011;44825;53.200;6.448;2024-01-15T05:19:58;4.65;;;1.10;;
59040;SDS011;44825;53.200;6.448;2024-01-15T05:22:24;5.60;;;1.30;;
59040;SDS011;44825;53.200;6.448;2024-01-15T05:24:50;12.18;;;1.65;;
59040;SDS011;44825;53.200;6.448;2024-01-15T05:27:16;10.85;;;1.20;;
59040;SDS011;44825;53.200;6.448;2024-01-15T05:29:43;10.98;;;1.70;;
59040;SDS011;44825;53.200;6.448;2024-01-15T05:32:09;14.10;;;1.77;;
59040;SDS011;44825;53.200;6.448;2024-01-15T05:34:35;12.68;;;1.50;;
59040;SDS011;44825;53.200;6.448;2024-01-15T05:37:01;8.73;;;1.92;;
59040;SDS011;44825;53.200;6.448;2024-01-15T05:39:27;8.85;;;1.40;;
59040;SDS011;44825;53.200;6.448;2024-01-15T05:41:53;14.63;;;1.98;;
59040;SDS011;44825;53.200;6.448;2024-01-15T05:44:19;10.50;;;2.40;;
59040;SDS011;44825;53.200;6.448;2024-01-15T05:46:45;11.75;;;2.53;;
59040;SDS011;44825;53.200;6.448;2024-01-15T05:49:14;10.70;;;2.13;;
59040;SDS011;44825;53.200;6.448;2024-01-15T05:51:43;11.82;;;1.95;;
59040;SDS011;44825;53.200;6.448;2024-01-15T05:54:09;14.10;;;1.85;;
59040;SDS011;44825;53.200;6.448;2024-01-15T05:56:35;11.15;;;1.65;;
59040;SDS011;44825;53.200;6.448;2024-01-15T05:59:01;12.75;;;1.90;;
59040;SDS011;44825;53.200;6.448;2024-01-15T06:01:27;5.55;;;1.58;;
59040;SDS011;44825;53.200;6.448;2024-01-15T06:03:53;9.77;;;1.60;;
59040;SDS011;44825;53.200;6.448;2024-01-15T06:06:19;13.05;;;1.88;;
59040;SDS011;44825;53.200;6.448;2024-01-15T06:08:45;10.70;;;1.98;;
59040;SDS011;44825;53.200;6.448;2024-01-15T06:11:11;13.10;;;2.13;;
59040;SDS011;44825;53.200;6.448;2024-01-15T06:13:37;14.02;;;3.47;;
59040;SDS011;44825;53.200;6.448;2024-01-15T06:16:11;18.85;;;1.85;;
59040;SDS011;44825;53.200;6.448;2024-01-15T06:18:37;15.68;;;2.08;;
59040;SDS011;44825;53.200;6.448;2024-01-15T06:21:03;14.63;;;2.55;;
59040;SDS011;44825;53.200;6.448;2024-01-15T06:23:29;11.00;;;2.75;;
59040;SDS011;44825;53.200;6.448;2024-01-15T06:25:55;20.38;;;2.45;;
59040;SDS011;44825;53.200;6.448;2024-01-15T06:28:21;14.63;;;2.30;;
59040;SDS011;44825;53.200;6.448;2024-01-15T06:30:47;15.40;;;1.75;;
59040;SDS011;44825;53.200;6.448;2024-01-15T06:33:13;10.15;;;2.20;;
59040;SDS011;44825;53.200;6.448;2024-01-15T06:35:39;10.02;;;1.77;;
59040;SDS011;44825;53.200;6.448;2024-01-15T06:38:06;14.32;;;2.10;;
59040;SDS011;44825;53.200;6.448;2024-01-15T06:40:32;28.95;;;3.38;;
59040;SDS011;44825;53.200;6.448;2024-01-15T06:42:58;16.50;;;3.58;;
59040;SDS011;44825;53.200;6.448;2024-01-15T06:45:24;12.63;;;2.40;;
59040;SDS011;44825;53.200;6.448;2024-01-15T06:47:50;14.27;;;2.13;;
59040;SDS011;44825;53.200;6.448;2024-01-15T06:50:16;15.98;;;2.50;;
59040;SDS011;44825;53.200;6.448;2024-01-15T06:52:42;14.52;;;2.10;;
59040;SDS011;44825;53.200;6.448;2024-01-15T06:55:08;11.10;;;1.80;;
59040;SDS011;44825;53.200;6.448;2024-01-15T06:57:34;11.30;;;2.00;;
59040;SDS011;44825;53.200;6.448;2024-01-15T07:00:00;16.00;;;2.20;;
59040;SDS011;44825;53.200;6.448;2024-01-15T07:02:27;13.10;;;1.88;;
59040;SDS011;44825;53.200;6.448;2024-01-15T07:04:53;8.80;;;1.65;;
59040;SDS011;44825;53.200;6.448;2024-01-15T07:07:19;14.82;;;2.08;;
59040;SDS011;44825;53.200;6.448;2024-01-15T07:09:45;15.18;;;1.90;;
59040;SDS011;44825;53.200;6.448;2024-01-15T07:12:11;7.28;;;1.40;;
59040;SDS011;44825;53.200;6.448;2024-01-15T07:14:37;7.38;;;1.48;;
59040;SDS011;44825;53.200;6.448;2024-01-15T07:17:03;9.05;;;1.92;;
59040;SDS011;44825;53.200;6.448;2024-01-15T07:19:30;14.65;;;2.28;;
59040;SDS011;44825;53.200;6.448;2024-01-15T07:21:56;11.38;;;1.63;;
59040;SDS011;44825;53.200;6.448;2024-01-15T07:24:22;7.45;;;1.30;;
59040;SDS011;44825;53.200;6.448;2024-01-15T07:26:48;10.30;;;1.80;;
59040;SDS011;44825;53.200;6.448;2024-01-15T07:29:14;13.88;;;1.38;;
59040;SDS011;44825;53.200;6.448;2024-01-15T07:31:40;6.65;;;0.93;;
59040;SDS011;44825;53.200;6.448;2024-01-15T07:34:06;12.85;;;1.10;;
59040;SDS011;44825;53.200;6.448;2024-01-15T07:36:32;6.53;;;1.38;;
59040;SDS011;44825;53.200;6.448;2024-01-15T07:38:58;8.93;;;1.45;;
59040;SDS011;44825;53.200;6.448;2024-01-15T07:41:24;6.65;;;1.27;;
59040;SDS011;44825;53.200;6.448;2024-01-15T07:43:50;8.20;;;1.63;;
59040;SDS011;44825;53.200;6.448;2024-01-15T07:46:16;7.63;;;1.30;;
59040;SDS011;44825;53.200;6.448;2024-01-15T07:48:43;13.82;;;1.70;;
59040;SDS011;44825;53.200;6.448;2024-01-15T07:51:09;8.00;;;1.05;;
59040;SDS011;44825;53.200;6.448;2024-01-15T07:53:35;13.05;;;2.60;;
59040;SDS011;44825;53.200;6.448;2024-01-15T07:56:01;9.35;;;1.52;;
59040;SDS011;44825;53.200;6.448;2024-01-15T07:58:27;10.50;;;2.13;;
59040;SDS011;44825;53.200;6.448;2024-01-15T08:00:53;9.93;;;1.50;;
59040;SDS011;44825;53.200;6.448;2024-01-15T08:03:19;10.38;;;1.33;;
59040;SDS011;44825;53.200;6.448;2024-01-15T08:05:45;12.20;;;2.20;;
59040;SDS011;44825;53.200;6.448;2024-01-15T08:08:11;10.93;;;1.10;;
59040;SDS011;44825;53.200;6.448;2024-01-15T08:10:37;11.75;;;1.52;;
59040;SDS011;44825;53.200;6.448;2024-01-15T08:13:04;8.35;;;1.15;;
59040;SDS011;44825;53.200;6.448;2024-01-15T08:15:30;10.32;;;1.20;;
59040;SDS011;44825;53.200;6.448;2024-01-15T08:17:56;9.55;;;1.40;;
59040;SDS011;44825;53.200;6.448;2024-01-15T08:20:22;7.85;;;0.95;;
59040;SDS011;44825;53.200;6.448;2024-01-15T08:22:48;6.78;;;1.00;;
59040;SDS011;44825;53.200;6.448;2024-01-15T08:25:14;6.95;;;0.93;;
59040;SDS011;44825;53.200;6.448;2024-01-15T08:27:40;5.10;;;1.27;;
59040;SDS011;44825;53.200;6.448;2024-01-15T08:30:07;10.63;;;1.67;;
59040;SDS011;44825;53.200;6.448;2024-01-15T08:32:33;6.28;;;1.20;;
59040;SDS011;44825;53.200;6.448;2024-01-15T08:35:05;5.38;;;0.98;;
59040;SDS011;44825;53.200;6.448;2024-01-15T08:37:31;5.63;;;1.17;;
59040;SDS011;44825;53.200;6.448;2024-01-15T08:39:58;9.27;;;1.10;;
59040;SDS011;44825;53.200;6.448;2024-01-15T08:42:24;3.00;;;0.80;;
59040;SDS011;44825;53.200;6.448;2024-01-15T08:44:50;11.25;;;1.20;;
59040;SDS011;44825;53.200;6.448;2024-01-15T08:47:16;6.65;;;0.85;;
59040;SDS011;44825;53.200;6.448;2024-01-15T08:49:42;6.15;;;1.48;;
59040;SDS011;44825;53.200;6.448;2024-01-15T08:52:10;3.78;;;0.60;;
59040;SDS011;44825;53.200;6.448;2024-01-15T08:54:36;7.07;;;1.02;;
59040;SDS011;44825;53.200;6.448;2024-01-15T08:57:02;5.47;;;0.68;;
59040;SDS011;44825;53.200;6.448;2024-01-15T08:59:28;6.85;;;1.08;;
59040;SDS011;44825;53.200;6.448;2024-01-15T09:01:54;4.72;;;0.98;;
59040;SDS011;44825;53.200;6.448;2024-01-15T09:04:23;8.45;;;1.35;;
59040;SDS011;44825;53.200;6.448;2024-01-15T09:06:49;3.78;;;0.75;;
59040;SDS011;44825;53.200;6.448;2024-01-15T09:09:15;5.78;;;1.10;;
59040;SDS011;44825;53.200;6.448;2024-01-15T09:11:41;8.18;;;1.35;;
59040;SDS011;44825;53.200;6.448;2024-01-15T09:14:08;5.05;;;1.10;;
59040;SDS011;44825;53.200;6.448;2024-01-15T09:16:34;5.70;;;1.33;;
59040;SDS011;44825;53.200;6.448;2024-01-15T09:19:00;10.05;;;1.38;;
59040;SDS011;44825;53.200;6.448;2024-01-15T09:21:26;5.53;;;1.23;;
59040;SDS011;44825;53.200;6.448;2024-01-15T09:23:52;6.38;;;1.25;;
59040;SDS011;44825;53.200;6.448;2024-01-15T09:26:18;13.45;;;2.03;;
59040;SDS011;44825;53.200;6.448;2024-01-15T09:28:44;8.00;;;1.00;;
59040;SDS011;44825;53.200;6.448;2024-01-15T09:31:10;6.60;;;1.20;;
59040;SDS011;44825;53.200;6.448;2024-01-15T09:33:36;7.68;;;1.38;;
59040;SDS011;44825;53.200;6.448;2024-01-15T09:36:03;8.18;;;1.50;;
59040;SDS011;44825;53.200;6.448;2024-01-15T09:38:30;7.47;;;1.23;;
59040;SDS011;44825;53.200;6.448;2024-01-15T09:40:56;8.55;;;1.38;;
59040;SDS011;44825;53.200;6.448;2024-01-15T09:43:23;12.65;;;1.35;;
59040;SDS011;44825;53.200;6.448;2024-01-15T09:45:50;10.60;;;1.50;;
59040;SDS011;44825;53.200;6.448;2024-01-15T09:48:16;12.40;;;1.58;;
59040;SDS011;44825;53.200;6.448;2024-01-15T09:50:42;7.38;;;0.98;;
59040;SDS011;44825;53.200;6.448;2024-01-15T09:53:08;10.05;;;2.08;;
59040;SDS011;44825;53.200;6.448;2024-01-15T09:55:38;7.00;;;1.38;;
59040;SDS011;44825;53.200;6.448;2024-01-15T09:58:04;10.32;;;1.48;;
59040;SDS011;44825;53.200;6.448;2024-01-15T10:00:30;8.30;;;1.40;;
59040;SDS011;44825;53.200;6.448;2024-01-15T10:02:56;10.13;;;2.00;;
59040;SDS011;44825;53.200;6.448;2024-01-15T10:05:23;8.70;;;1.40;;
59040;SDS011;44825;53.200;6.448;2024-01-15T10:07:49;11.77;;;1.70;;
59040;SDS011;44825;53.200;6.448;2024-01-15T10:10:16;7.40;;;1.13;;
59040;SDS011;44825;53.200;6.448;2024-01-15T10:12:42;9.25;;;1.40;;
59040;SDS011;44825;53.200;6.448;2024-01-15T10:15:11;9.75;;;1.17;;
59040;SDS011;44825;53.200;6.448;2024-01-15T10:17:38;9.93;;;1.60;;
59040;SDS011;44825;53.200;6.448;2024-01-15T10:20:08;7.88;;;1.08;;
59040;SDS011;44825;53.200;6.448;2024-01-15T10:22:35;6.63;;;1.10;;
59040;SDS011;44825;53.200;6.448;2024-01-15T10:25:04;9.65;;;1.33;;
59040;SDS011;44825;53.200;6.448;2024-01-15T10:27:30;7.72;;;1.85;;
59040;SDS011;44825;53.200;6.448;2024-01-15T10:29:59;9.00;;;1.30;;
59040;SDS011;44825;53.200;6.448;2024-01-15T10:32:25;5.78;;;1.00;;
59040;SDS011;44825;53.200;6.448;2024-01-15T10:34:52;5.40;;;1.13;;
59040;SDS011;44825;53.200;6.448;2024-01-15T10:37:18;14.05;;;1.67;;
59040;SDS011;44825;53.200;6.448;2024-01-15T10:39:46;6.97;;;1.38;;
59040;SDS011;44825;53.200;6.448;2024-01-15T10:42:12;6.95;;;1.30;;
59040;SDS011;44825;53.200;6.448;2024-01-15T10:44:38;9.35;;;1.00;;
59040;SDS011;44825;53.200;6.448;2024-01-15T10:47:04;6.65;;;0.93;;
59040;SDS011;44825;53.200;6.448;2024-01-15T10:49:30;5.82;;;0.93;;
59040;SDS011;44825;53.200;6.448;2024-01-15T10:51:57;5.75;;;0.95;;
59040;SDS011;44825;53.200;6.448;2024-01-15T10:54:23;2.80;;;0.60;;
59040;SDS011;44825;53.200;6.448;2024-01-15T10:56:50;2.60;;;0.35;;
59040;SDS011;44825;53.200;6.448;2024-01-15T10:59:16;5.05;;;0.50;;
59040;SDS011;44825;53.200;6.448;2024-01-15T11:01:42;1.90;;;0.45;;
59040;SDS011;44825;53.200;6.448;2024-01-15T11:04:09;3.88;;;0.60;;
59040;SDS011;44825;53.200;6.448;2024-01-15T11:06:45;6.53;;;0.73;;
59040;SDS011;44825;53.200;6.448;2024-01-15T11:09:11;3.28;;;0.60;;
59040;SDS011;44825;53.200;6.448;2024-01-15T11:11:47;5.18;;;0.90;;
59040;SDS011;44825;53.200;6.448;2024-01-15T11:17:22;3.15;;;0.75;;
59040;SDS011;44825;53.200;6.448;2024-01-15T11:19:48;2.90;;;0.60;;
59040;SDS011;44825;53.200;6.448;2024-01-15T11:25:17;5.45;;;0.95;;
59040;SDS011;44825;53.200;6.448;2024-01-15T11:27:43;6.40;;;2.05;;
59040;SDS011;44825;53.200;6.448;2024-01-15T11:30:10;4.55;;;1.00;;
59040;SDS011;44825;53.200;6.448;2024-01-15T11:32:36;4.38;;;0.85;;
59040;SDS011;44825;53.200;6.448;2024-01-15T11:35:06;4.18;;;0.77;;
59040;SDS011;44825;53.200;6.448;2024-01-15T11:40:23;2.50;;;0.40;;
59040;SDS011;44825;53.200;6.448;2024-01-15T11:42:49;3.72;;;0.50;;
59040;SDS011;44825;53.200;6.448;2024-01-15T11:45:18;5.50;;;0.65;;
59040;SDS011;44825;53.200;6.448;2024-01-15T11:47:55;1.73;;;0.30;;
59040;SDS011;44825;53.200;6.448;2024-01-15T11:50:26;1.52;;;0.60;;
59040;SDS011;44825;53.200;6.448;2024-01-15T11:53:03;1.02;;;0.32;;
59040;SDS011;44825;53.200;6.448;2024-01-15T11:55:30;2.42;;;0.50;;
59040;SDS011;44825;53.200;6.448;2024-01-15T11:58:00;4.50;;;0.50;;
59040;SDS011;44825;53.200;6.448;2024-01-15T12:00:27;4.80;;;0.68;;
59040;SDS011;44825;53.200;6.448;2024-01-15T12:02:54;3.75;;;0.65;;
59040;SDS011;44825;53.200;6.448;2024-01-15T12:05:21;2.92;;;0.70;;
59040;SDS011;44825;53.200;6.448;2024-01-15T12:07:48;6.13;;;0.90;;
59040;SDS011;44825;53.200;6.448;2024-01-15T12:10:15;3.67;;;0.60;;
59040;SDS011;44825;53.200;6.448;2024-01-15T12:15:21;7.60;;;1.15;;
59040;SDS011;44825;53.200;6.448;2024-01-15T12:17:47;9.68;;;1.20;;
59040;SDS011;44825;53.200;6.448;2024-01-15T12:20:13;8.95;;;1.00;;
59040;SDS011;44825;53.200;6.448;2024-01-15T12:22:40;8.32;;;1.00;;
59040;SDS011;44825;53.200;6.448;2024-01-15T12:25:07;11.65;;;1.58;;
59040;SDS011;44825;53.200;6.448;2024-01-15T12:27:33;10.07;;;1.00;;
59040;SDS011;44825;53.200;6.448;2024-01-15T12:29:59;7.40;;;1.48;;
59040;SDS011;44825;53.200;6.448;2024-01-15T12:32:25;5.93;;;1.00;;
59040;SDS011;44825;53.200;6.448;2024-01-15T12:34:51;8.80;;;1.25;;
59040;SDS011;44825;53.200;6.448;2024-01-15T12:37:21;4.53;;;0.90;;
59040;SDS011;44825;53.200;6.448;2024-01-15T12:39:47;5.32;;;0.90;;
59040;SDS011;44825;53.200;6.448;2024-01-15T12:42:16;7.47;;;1.17;;
59040;SDS011;44825;53.200;6.448;2024-01-15T12:44:44;8.10;;;1.08;;
59040;SDS011;44825;53.200;6.448;2024-01-15T12:47:10;8.70;;;1.77;;
59040;SDS011;44825;53.200;6.448;2024-01-15T12:49:37;6.85;;;1.30;;
59040;SDS011;44825;53.200;6.448;2024-01-15T12:52:03;6.65;;;1.20;;
59040;SDS011;44825;53.200;6.448;2024-01-15T12:54:29;9.43;;;1.55;;
59040;SDS011;44825;53.200;6.448;2024-01-15T12:56:55;6.22;;;1.25;;
59040;SDS011;44825;53.200;6.448;2024-01-15T12:59:21;11.38;;;1.00;;
59040;SDS011;44825;53.200;6.448;2024-01-15T13:01:47;6.53;;;1.13;;
59040;SDS011;44825;53.200;6.448;2024-01-15T13:04:22;7.68;;;1.40;;
59040;SDS011;44825;53.200;6.448;2024-01-15T13:06:49;7.43;;;1.02;;
59040;SDS011;44825;53.200;6.448;2024-01-15T13:09:15;8.80;;;1.42;;
59040;SDS011;44825;53.200;6.448;2024-01-15T13:11:42;8.15;;;1.40;;
59040;SDS011;44825;53.200;6.448;2024-01-15T13:14:08;10.63;;;1.98;;
59040;SDS011;44825;53.200;6.448;2024-01-15T13:16:34;5.60;;;1.58;;
59040;SDS011;44825;53.200;6.448;2024-01-15T13:19:00;6.88;;;1.25;;
59040;SDS011;44825;53.200;6.448;2024-01-15T13:21:28;4.25;;;1.00;;
59040;SDS011;44825;53.200;6.448;2024-01-15T13:23:54;12.15;;;1.30;;
59040;SDS011;44825;53.200;6.448;2024-01-15T13:26:20;10.65;;;1.30;;
59040;SDS011;44825;53.200;6.448;2024-01-15T13:28:46;7.18;;;1.50;;
59040;SDS011;44825;53.200;6.448;2024-01-15T13:31:12;8.75;;;1.33;;
59040;SDS011;44825;53.200;6.448;2024-01-15T13:33:39;10.23;;;1.50;;
59040;SDS011;44825;53.200;6.448;2024-01-15T13:36:05;9.55;;;1.27;;
59040;SDS011;44825;53.200;6.448;2024-01-15T13:38:35;15.23;;;1.67;;
59040;SDS011;44825;53.200;6.448;2024-01-15T13:41:02;9.52;;;1.67;;
59040;SDS011;44825;53.200;6.448;2024-01-15T13:43:28;15.55;;;2.08;;
59040;SDS011;44825;53.200;6.448;2024-01-15T13:45:54;11.70;;;1.67;;
59040;SDS011;44825;53.200;6.448;2024-01-15T13:48:20;10.30;;;1.45;;
59040;SDS011;44825;53.200;6.448;2024-01-15T13:50:46;11.05;;;2.58;;
59040;SDS011;44825;53.200;6.448;2024-01-15T13:53:12;6.22;;;1.15;;
59040;SDS011;44825;53.200;6.448;2024-01-15T13:55:38;9.95;;;1.20;;
59040;SDS011;44825;53.200;6.448;2024-01-15T13:58:05;12.88;;;1.77;;
59040;SDS011;44825;53.200;6.448;2024-01-15T14:00:31;9.05;;;2.17;;
59040;SDS011;44825;53.200;6.448;2024-01-15T14:02:58;9.80;;;1.95;;
59040;SDS011;44825;53.200;6.448;2024-01-15T14:05:24;14.95;;;2.33;;
59040;SDS011;44825;53.200;6.448;2024-01-15T14:07:50;10.35;;;1.95;;
59040;SDS011;44825;53.200;6.448;2024-01-15T14:10:16;11.13;;;1.98;;
59040;SDS011;44825;53.200;6.448;2024-01-15T14:12:42;11.70;;;1.70;;
59040;SDS011;44825;53.200;6.448;2024-01-15T14:15:09;11.20;;;2.20;;
59040;SDS011;44825;53.200;6.448;2024-01-15T14:17:35;12.68;;;1.50;;
59040;SDS011;44825;53.200;6.448;2024-01-15T14:20:01;9.88;;;1.45;;
59040;SDS011;44825;53.200;6.448;2024-01-15T14:22:30;7.63;;;1.35;;
59040;SDS011;44825;53.200;6.448;2024-01-15T14:24:56;9.43;;;1.67;;
59040;SDS011;44825;53.200;6.448;2024-01-15T14:27:22;8.25;;;1.70;;
59040;SDS011;44825;53.200;6.448;2024-01-15T14:29:48;13.07;;;2.55;;
59040;SDS011;44825;53.200;6.448;2024-01-15T14:32:14;17.38;;;3.03;;
59040;SDS011;44825;53.200;6.448;2024-01-15T14:34:40;12.55;;;1.92;;
59040;SDS011;44825;53.200;6.448;2024-01-15T14:37:06;9.02;;;1.52;;
59040;SDS011;44825;53.200;6.448;2024-01-15T14:39:32;10.48;;;2.17;;
59040;SDS011;44825;53.200;6.448;2024-01-15T14:41:59;11.48;;;1.98;;
59040;SDS011;44825;53.200;6.448;2024-01-15T14:44:26;5.97;;;1.33;;
59040;SDS011;44825;53.200;6.448;2024-01-15T14:46:53;11.30;;;2.13;;
59040;SDS011;44825;53.200;6.448;2024-01-15T14:49:20;11.43;;;1.33;;